Terminal Aerodrome Forecast
Issued by NWS Brownsville, TX

Home | Current Version | Previous Version | Text Only | Print | Product List | Glossary On
Versions: 1 2 3 4 5 6 7 8 9 10 11 12 13 14 15 16 17 18 19 20 21 22 23 24
618
FTUS44 KBRO 240540
TAFBRO
TAF
KBRO 240540Z 2406/2506 36014G23KT P6SM VCSH SCT025 BKN050
      TEMPO 2406/2407 3SM RA BKN025
     FM241000 34012KT P6SM BKN050
     FM242100 04010KT P6SM SKC
     FM250200 10004KT P6SM SKC=

USA.gov is the U.S. government's official web portal to all federal, state and local government web resources and services.